createdAt,value
2019-04-22T00:02:35.260Z,11.20
2019-04-22T00:05:13.149Z,11.40
2019-04-22T00:08:03.519Z,11.50
2019-04-22T00:10:39.713Z,11.40
2019-04-22T00:13:19.947Z,11.20
2019-04-22T00:15:41.809Z,11.10
2019-04-22T00:18:26.670Z,10.90
2019-04-22T00:20:58.121Z,10.70
2019-04-22T00:23:37.032Z,10.60
2019-04-22T00:26:09.324Z,10.40
2019-04-22T00:28:43.796Z,10.40
2019-04-22T00:31:27.124Z,10.30
2019-04-22T00:34:06.220Z,10.20
2019-04-22T00:36:37.532Z,10.20
2019-04-22T00:39:18.429Z,10.30
2019-04-22T00:41:50.866Z,10.20
2019-04-22T00:44:25.496Z,10.20
2019-04-22T00:46:59.593Z,10.10
2019-04-22T00:52:22.342Z,10.30
2019-04-22T00:54:38.002Z,10.50
2019-04-22T00:57:08.756Z,10.70
2019-04-22T00:59:50.840Z,10.70
2019-04-22T01:02:23.646Z,10.70
2019-04-22T01:04:55.995Z,10.70
2019-04-22T01:07:23.723Z,10.50
2019-04-22T01:10:07.801Z,10.20
2019-04-22T01:12:39.636Z,10.00
2019-04-22T01:15:14.831Z,9.90
2019-04-22T01:17:46.679Z,9.80
2019-04-22T01:20:52.369Z,9.80
2019-04-22T01:22:56.273Z,9.80
2019-04-22T01:25:23.681Z,9.80
2019-04-22T01:27:54.693Z,9.80
2019-04-22T01:30:25.627Z,9.80
2019-04-22T01:32:52.074Z,9.60
2019-04-22T01:35:37.505Z,9.50
2019-04-22T01:38:13.269Z,9.40
2019-04-22T01:41:02.789Z,9.40
2019-04-22T01:43:37.437Z,9.50
2019-04-22T01:46:08.465Z,9.70
2019-04-22T01:48:39.389Z,9.80
2019-04-22T01:51:04.838Z,10.00
2019-04-22T01:53:53.125Z,10.00
2019-04-22T01:56:24.487Z,10.00
2019-04-22T01:58:44.089Z,9.90
2019-04-22T02:01:34.968Z,9.90
2019-04-22T02:04:00.905Z,9.90
2019-04-22T02:06:40.670Z,9.90
2019-04-22T02:09:17.421Z,9.80
2019-04-22T02:11:46.636Z,9.70
2019-04-22T02:14:20.752Z,9.70
2019-04-22T02:20:32.945Z,9.40
2019-04-22T02:21:56.585Z,9.30
2019-04-22T02:24:35.307Z,9.40
2019-04-22T02:27:14.116Z,9.40
2019-04-22T02:29:44.337Z,9.50
2019-04-22T02:32:27.654Z,9.60
2019-04-22T02:35:01.602Z,9.70
2019-04-22T02:37:22.872Z,9.70
2019-04-22T02:42:24.241Z,9.80
2019-04-22T02:44:58.635Z,9.80
2019-04-22T02:47:35.984Z,9.80
2019-04-22T02:50:12.668Z,9.90
2019-04-22T02:52:47.320Z,9.90
2019-04-22T02:58:12.596Z,9.80
2019-04-22T03:00:51.956Z,9.70
2019-04-22T03:05:53.331Z,9.40
2019-04-22T03:08:25.314Z,9.30
2019-04-22T03:13:38.288Z,9.20
2019-04-22T03:16:07.686Z,9.20
2019-04-22T03:18:53.662Z,9.30
2019-04-22T03:24:06.062Z,9.40
2019-04-22T03:26:27.452Z,9.50
2019-04-22T03:28:51.155Z,9.50
2019-04-22T03:42:09.808Z,9.80
2019-04-22T03:44:54.627Z,9.90
2019-04-22T03:47:32.064Z,9.80
2019-04-22T03:50:06.110Z,9.90
2019-04-22T04:00:20.816Z,9.90
2019-04-22T04:05:34.008Z,9.80
2019-04-22T04:08:12.652Z,9.80
2019-04-22T04:13:10.244Z,9.80
2019-04-22T04:15:53.321Z,9.70
2019-04-22T04:18:11.329Z,9.60
2019-04-22T04:23:30.907Z,9.40
2019-04-22T04:25:54.273Z,9.40
2019-04-22T04:31:09.981Z,9.40
2019-04-22T04:36:08.758Z,9.50
2019-04-22T04:39:03.029Z,9.50
2019-04-22T04:41:26.656Z,9.50
2019-04-22T04:44:03.715Z,9.50
2019-04-22T04:49:16.553Z,9.50
2019-04-22T04:51:37.722Z,9.50
2019-04-22T04:54:28.798Z,9.50
2019-04-22T04:56:56.599Z,9.50
2019-04-22T05:01:55.879Z,9.60
2019-04-22T05:04:40.902Z,9.70
2019-04-22T05:07:09.347Z,9.70
2019-04-22T05:09:35.999Z,9.80
2019-04-22T05:12:26.661Z,9.80
2019-04-22T05:14:44.722Z,9.80
2019-04-22T05:17:18.532Z,9.90
2019-04-22T05:19:50.261Z,9.90
2019-04-22T05:22:28.315Z,10.10
2019-04-22T05:25:00.174Z,10.20
2019-04-22T05:27:37.737Z,10.30
2019-04-22T05:30:23.522Z,10.50
2019-04-22T05:32:43.026Z,10.70
2019-04-22T05:35:20.739Z,10.80
2019-04-22T05:37:59.512Z,11.00
2019-04-22T05:43:05.049Z,11.20
2019-04-22T05:45:33.094Z,11.40
2019-04-22T05:48:15.811Z,11.50
2019-04-22T05:50:48.563Z,11.70
2019-04-22T05:53:14.946Z,11.90
2019-04-22T05:58:22.992Z,12.20
2019-04-22T06:03:46.484Z,12.50
2019-04-22T06:09:02.874Z,12.80
2019-04-22T06:11:31.249Z,13.00
2019-04-22T06:14:04.457Z,13.10
2019-04-22T06:16:44.315Z,13.30
2019-04-22T06:19:18.501Z,13.50
2019-04-22T06:21:48.059Z,13.60
2019-04-22T06:24:49.421Z,13.80
2019-04-22T06:29:30.170Z,14.10
2019-04-22T06:32:24.688Z,14.20
2019-04-22T06:34:43.153Z,14.40
2019-04-22T06:37:17.491Z,14.60
2019-04-22T06:39:46.650Z,14.70
2019-04-22T06:45:02.774Z,15.00
2019-04-22T06:47:43.918Z,15.20
2019-04-22T06:50:09.433Z,15.30
2019-04-22T06:52:50.277Z,15.40
2019-04-22T06:55:21.142Z,15.50
2019-04-22T06:57:53.039Z,15.60
2019-04-22T07:00:24.769Z,15.60
2019-04-22T07:03:26.924Z,15.70
2019-04-22T07:05:32.812Z,15.80
2019-04-22T07:08:30.345Z,15.90
2019-04-22T07:13:21.855Z,16.10
2019-04-22T07:23:41.925Z,16.40
2019-04-22T07:26:04.393Z,16.40
2019-04-22T07:28:38.049Z,16.50
2019-04-22T07:31:29.003Z,16.50
2019-04-22T07:34:13.380Z,16.60
2019-04-22T07:39:01.942Z,16.80
2019-04-22T07:41:34.441Z,16.90
2019-04-22T07:44:26.529Z,17.00
2019-04-22T07:46:54.704Z,17.10
2019-04-22T07:49:22.051Z,17.20
2019-04-22T07:51:49.499Z,17.40
2019-04-22T07:54:25.918Z,17.50
2019-04-22T07:57:08.696Z,17.60
2019-04-22T07:59:40.386Z,17.70
2019-04-22T08:02:14.575Z,17.80
2019-04-22T08:05:03.991Z,18.00
2019-04-22T08:07:27.981Z,18.10
2019-04-22T08:12:36.200Z,18.40
2019-04-22T08:15:10.674Z,18.50
2019-04-22T08:20:16.704Z,18.80
2019-04-22T08:22:52.204Z,19.00
2019-04-22T08:25:17.996Z,19.20
2019-04-22T08:28:01.653Z,19.30
2019-04-22T08:30:35.237Z,19.40
2019-04-22T08:33:11.142Z,19.50
2019-04-22T08:35:52.151Z,19.70
2019-04-22T08:38:13.053Z,19.80
2019-04-22T08:41:17.784Z,19.90
2019-04-22T08:43:52.398Z,19.90
2019-04-22T08:46:30.172Z,20.00
2019-04-22T08:48:54.260Z,20.00
2019-04-22T08:56:37.629Z,20.50
2019-04-22T09:01:41.949Z,20.80
2019-04-22T09:04:14.625Z,20.90
2019-04-22T09:11:59.954Z,21.10
2019-04-22T09:14:40.572Z,21.00
2019-04-22T09:17:17.420Z,20.90
2019-04-22T09:19:47.722Z,20.90
2019-04-22T09:22:16.849Z,21.00
2019-04-22T09:24:54.026Z,21.20
2019-04-22T09:30:04.970Z,21.50
2019-04-22T09:32:38.802Z,21.50
2019-04-22T09:35:10.235Z,21.60
2019-04-22T09:37:50.290Z,21.60
2019-04-22T09:40:22.263Z,21.60
2019-04-22T09:43:02.422Z,21.80
2019-04-22T09:45:21.721Z,22.00
2019-04-22T09:48:00.922Z,22.00
2019-04-22T09:50:52.478Z,22.00
2019-04-22T09:53:08.061Z,22.00
2019-04-22T09:55:47.752Z,22.00
2019-04-22T09:58:16.594Z,22.00
2019-04-22T10:03:51.668Z,22.20
2019-04-22T10:09:12.732Z,22.20
2019-04-22T10:11:32.662Z,22.20
2019-04-22T10:14:05.594Z,22.30
2019-04-22T10:21:54.466Z,22.30
2019-04-22T10:24:19.177Z,22.30
2019-04-22T10:27:07.231Z,22.40
2019-04-22T10:29:36.516Z,22.40
2019-04-22T10:32:05.199Z,22.40
2019-04-22T10:34:26.284Z,22.30
2019-04-22T10:36:54.393Z,22.40
2019-04-22T10:39:35.683Z,22.60
2019-04-22T10:41:58.884Z,22.70
2019-04-22T10:44:33.282Z,22.70
2019-04-22T10:47:06.379Z,22.70
2019-04-22T10:49:42.442Z,22.80
2019-04-22T10:52:16.382Z,22.80
2019-04-22T10:54:49.460Z,22.70
2019-04-22T10:57:24.000Z,22.80
2019-04-22T10:59:56.685Z,22.90
2019-04-22T11:02:29.852Z,23.00
2019-04-22T11:05:03.979Z,23.20
2019-04-22T11:07:44.017Z,23.40
2019-04-22T11:10:29.064Z,23.50
2019-04-22T11:13:09.178Z,23.60
2019-04-22T11:15:44.764Z,23.50
2019-04-22T11:18:19.845Z,23.50
2019-04-22T11:20:53.515Z,23.60
2019-04-22T11:23:27.052Z,23.60
2019-04-22T11:26:01.787Z,23.60
2019-04-22T11:28:34.006Z,23.60
2019-04-22T11:31:08.104Z,23.70
2019-04-22T11:33:40.753Z,23.60
2019-04-22T11:36:13.565Z,23.60
2019-04-22T11:38:53.041Z,23.60
2019-04-22T11:41:23.553Z,23.60
2019-04-22T11:43:56.934Z,23.60
2019-04-22T11:46:29.555Z,23.60
2019-04-22T11:49:03.625Z,23.60
2019-04-22T11:51:36.114Z,23.60
2019-04-22T11:54:08.924Z,23.70
2019-04-22T11:56:42.966Z,23.90
2019-04-22T11:59:15.716Z,23.70
2019-04-22T12:01:48.723Z,23.70
2019-04-22T12:04:22.107Z,23.60
2019-04-22T12:06:55.890Z,23.60
2019-04-22T12:09:28.158Z,23.50
2019-04-22T12:12:00.333Z,23.60
2019-04-22T12:14:34.080Z,23.80
2019-04-22T12:17:07.772Z,23.80
2019-04-22T12:19:42.057Z,24.10
2019-04-22T12:22:15.400Z,24.30
2019-04-22T12:24:48.590Z,24.40
2019-04-22T12:27:22.841Z,24.40
2019-04-22T12:29:56.771Z,24.50
2019-04-22T12:32:29.733Z,24.40
2019-04-22T12:35:02.620Z,24.30
2019-04-22T12:37:43.544Z,24.30
2019-04-22T12:40:10.813Z,24.20
2019-04-22T12:42:45.003Z,24.20
2019-04-22T12:45:20.471Z,24.20
2019-04-22T12:47:53.898Z,24.20
2019-04-22T12:50:31.529Z,24.40
2019-04-22T12:53:05.429Z,24.40
2019-04-22T12:55:35.594Z,24.60
2019-04-22T12:58:09.734Z,24.60
2019-04-22T13:00:42.776Z,24.50
2019-04-22T13:03:18.179Z,24.50
2019-04-22T13:05:51.474Z,24.30
2019-04-22T13:08:25.576Z,24.20
2019-04-22T13:11:05.784Z,24.10
2019-04-22T13:13:34.430Z,24.00
2019-04-22T13:16:06.963Z,24.00
2019-04-22T13:18:46.267Z,23.90
2019-04-22T13:21:14.962Z,24.00
2019-04-22T13:23:48.713Z,24.00
2019-04-22T13:26:21.190Z,23.90
2019-04-22T13:28:54.748Z,23.90
2019-04-22T13:31:28.678Z,23.90
2019-04-22T13:34:03.941Z,23.70
2019-04-22T13:36:40.073Z,23.60
2019-04-22T13:39:11.624Z,23.60
2019-04-22T13:41:50.442Z,23.70
2019-04-22T13:44:19.157Z,23.70
2019-04-22T13:47:08.165Z,23.70
2019-04-22T13:49:58.999Z,23.70
2019-04-22T13:55:22.075Z,23.90
2019-04-22T13:57:24.866Z,23.90
2019-04-22T13:59:48.136Z,23.90
2019-04-22T14:02:44.884Z,23.90
2019-04-22T14:05:19.572Z,23.80
2019-04-22T14:07:54.848Z,23.80
2019-04-22T14:10:26.844Z,23.90
2019-04-22T14:13:01.646Z,23.90
2019-04-22T14:15:33.974Z,23.90
2019-04-22T14:18:07.503Z,24.00
2019-04-22T14:20:41.096Z,23.90
2019-04-22T14:23:14.311Z,23.80
2019-04-22T14:25:48.427Z,23.80
2019-04-22T14:28:22.974Z,23.70
2019-04-22T14:30:54.719Z,23.60
2019-04-22T14:33:27.891Z,23.80
2019-04-22T14:36:00.542Z,23.70
2019-04-22T14:38:34.715Z,23.60
2019-04-22T14:41:08.325Z,23.50
2019-04-22T14:44:47.229Z,23.60
2019-04-22T14:46:39.418Z,23.50
2019-04-22T14:49:16.570Z,23.40
2019-04-22T14:51:48.804Z,23.40
2019-04-22T14:54:15.430Z,23.40
2019-04-22T14:56:34.151Z,23.20
2019-04-22T14:59:07.120Z,23.20
2019-04-22T15:01:41.439Z,23.10
2019-04-22T15:04:15.116Z,23.10
2019-04-22T15:06:49.890Z,23.10
2019-04-22T15:09:21.906Z,23.00
2019-04-22T15:12:08.381Z,23.00
2019-04-22T15:14:27.756Z,23.00
2019-04-22T15:17:18.695Z,23.00
2019-04-22T15:20:05.685Z,22.90
2019-04-22T15:22:38.887Z,22.70
2019-04-22T15:25:12.570Z,22.50
2019-04-22T15:27:45.929Z,22.30
2019-04-22T15:30:19.394Z,22.20
2019-04-22T15:32:51.852Z,22.20
2019-04-22T15:35:25.264Z,22.10
2019-04-22T15:37:59.010Z,22.00
2019-04-22T15:40:31.365Z,21.90
2019-04-22T15:43:04.740Z,21.90
2019-04-22T15:45:39.091Z,22.00
2019-04-22T15:48:11.777Z,21.90
2019-04-22T15:50:44.943Z,21.90
2019-04-22T15:53:18.034Z,21.90
2019-04-22T15:55:52.174Z,21.80
2019-04-22T15:58:25.799Z,21.80
2019-04-22T16:01:08.777Z,21.80
2019-04-22T16:03:32.524Z,21.70
2019-04-22T16:06:05.971Z,21.80
2019-04-22T16:08:40.973Z,21.80
2019-04-22T16:11:14.021Z,21.70
2019-04-22T16:13:48.388Z,21.70
2019-04-22T16:16:20.965Z,21.60
2019-04-22T16:18:54.221Z,21.60
2019-04-22T16:21:38.022Z,21.50
2019-04-22T16:24:14.066Z,21.40
2019-04-22T16:26:53.934Z,21.40
2019-04-22T16:29:27.469Z,21.30
2019-04-22T16:32:01.081Z,21.20
2019-04-22T16:34:34.106Z,21.10
2019-04-22T16:37:07.650Z,21.00
2019-04-22T16:39:42.048Z,20.90
2019-04-22T16:42:25.900Z,20.80
2019-04-22T16:44:49.418Z,20.70
2019-04-22T16:47:23.656Z,20.60
2019-04-22T16:49:57.547Z,20.50
2019-04-22T16:52:30.262Z,20.40
2019-04-22T16:55:03.473Z,20.30
2019-04-22T16:57:36.036Z,20.20
2019-04-22T17:00:11.207Z,20.20
2019-04-22T17:02:56.012Z,20.20
2019-04-22T17:06:03.551Z,20.10
2019-04-22T17:08:37.007Z,20.10
2019-04-22T17:11:09.930Z,20.00
2019-04-22T17:13:44.531Z,20.00
2019-04-22T17:16:18.010Z,19.90
2019-04-22T17:18:52.104Z,19.80
2019-04-22T17:21:25.847Z,19.80
2019-04-22T17:23:59.407Z,19.80
2019-04-22T17:26:32.651Z,19.70
2019-04-22T17:29:06.471Z,19.60
2019-04-22T17:31:40.881Z,19.50
2019-04-22T17:34:13.804Z,19.50
2019-04-22T17:36:46.885Z,19.40
2019-04-22T17:39:31.501Z,19.40
2019-04-22T17:42:12.577Z,19.30
2019-04-22T17:44:58.844Z,19.30
2019-04-22T17:47:34.951Z,19.20
2019-04-22T17:50:22.982Z,19.10
2019-04-22T17:53:03.569Z,19.10
2019-04-22T17:55:32.203Z,19.00
2019-04-22T17:58:05.750Z,18.80
2019-04-22T18:00:32.241Z,18.70
2019-04-22T18:03:03.081Z,18.70
2019-04-22T18:05:34.743Z,18.60
2019-04-22T18:08:20.433Z,18.50
2019-04-22T18:10:56.099Z,18.50
2019-04-22T18:13:33.398Z,18.40
2019-04-22T18:16:03.940Z,18.30
2019-04-22T18:18:37.400Z,18.20
2019-04-22T18:21:06.353Z,18.10
2019-04-22T18:23:30.372Z,18.00
2019-04-22T18:26:18.853Z,17.90
2019-04-22T18:28:55.942Z,17.80
2019-04-22T18:31:21.737Z,17.70
2019-04-22T18:33:55.607Z,17.60
2019-04-22T18:36:34.552Z,17.50
2019-04-22T18:39:10.064Z,17.40
2019-04-22T18:41:40.632Z,17.30
2019-04-22T18:44:19.832Z,17.30
2019-04-22T18:46:50.941Z,17.20
2019-04-22T18:49:22.951Z,17.10
2019-04-22T18:52:27.104Z,17.00
2019-04-22T18:55:20.286Z,16.90
2019-04-22T18:58:02.689Z,16.80
2019-04-22T19:00:25.470Z,16.80
2019-04-22T19:03:07.201Z,16.70
2019-04-22T19:06:02.364Z,16.60
2019-04-22T19:08:44.839Z,16.50
2019-04-22T19:11:08.470Z,16.50
2019-04-22T19:16:27.872Z,16.40
2019-04-22T19:19:17.220Z,16.30
2019-04-22T19:21:19.405Z,16.20
2019-04-22T19:23:54.484Z,16.10
2019-04-22T19:26:43.645Z,16.10
2019-04-22T19:29:00.385Z,16.00
2019-04-22T19:31:43.821Z,15.90
2019-04-22T19:34:17.786Z,15.80
2019-04-22T19:36:48.576Z,15.80
2019-04-22T19:39:18.248Z,15.80
2019-04-22T19:42:00.908Z,15.70
2019-04-22T19:44:36.334Z,15.60
2019-04-22T19:47:19.638Z,15.50
2019-04-22T19:49:49.050Z,15.40
2019-04-22T19:52:19.438Z,15.20
2019-04-22T19:54:47.791Z,15.20
2019-04-22T19:57:17.375Z,15.10
2019-04-22T19:59:57.427Z,15.00
2019-04-22T20:03:12.847Z,15.00
2019-04-22T20:05:55.633Z,15.00
2019-04-22T20:08:26.408Z,14.90
2019-04-22T20:10:59.216Z,14.90
2019-04-22T20:13:36.455Z,14.80
2019-04-22T20:15:57.494Z,14.70
2019-04-22T20:18:47.711Z,14.70
2019-04-22T20:21:17.918Z,14.70
2019-04-22T20:23:39.692Z,14.60
2019-04-22T20:26:16.175Z,14.60
2019-04-22T20:28:54.631Z,14.50
2019-04-22T20:31:30.617Z,14.50
2019-04-22T20:34:12.363Z,14.40
2019-04-22T20:39:07.830Z,14.20
2019-04-22T20:41:43.327Z,14.20
2019-04-22T20:44:25.552Z,14.10
2019-04-22T20:46:52.134Z,14.00
2019-04-22T20:49:30.838Z,14.00
2019-04-22T20:52:06.385Z,14.00
2019-04-22T20:54:39.956Z,14.00
2019-04-22T20:57:10.888Z,14.00
2019-04-22T20:59:49.847Z,13.90
2019-04-22T21:02:18.199Z,13.90
2019-04-22T21:04:47.730Z,13.80
2019-04-22T21:07:26.672Z,13.90
2019-04-22T21:10:01.102Z,13.80
2019-04-22T21:12:31.535Z,13.80
2019-04-22T21:15:19.441Z,13.80
2019-04-22T21:17:45.841Z,13.70
2019-04-22T21:20:28.658Z,13.60
2019-04-22T21:22:58.809Z,13.60
2019-04-22T21:25:23.981Z,13.50
2019-04-22T21:28:06.567Z,13.50
2019-04-22T21:30:37.577Z,13.50
2019-04-22T21:33:10.587Z,13.50
2019-04-22T21:35:59.483Z,13.50
2019-04-22T21:38:28.056Z,13.40
2019-04-22T21:40:58.323Z,13.40
2019-04-22T21:43:28.852Z,13.40
2019-04-22T21:46:10.487Z,13.40
2019-04-22T21:48:44.363Z,13.40
2019-04-22T21:51:19.161Z,13.30
2019-04-22T21:56:34.912Z,13.30
2019-04-22T21:59:02.118Z,13.30
2019-04-22T22:01:49.635Z,13.30
2019-04-22T22:04:18.922Z,13.20
2019-04-22T22:06:40.308Z,13.20
2019-04-22T22:09:26.720Z,13.20
2019-04-22T22:11:55.483Z,13.10
2019-04-22T22:14:27.590Z,13.10
2019-04-22T22:16:56.263Z,13.20
2019-04-22T22:19:39.682Z,13.20
2019-04-22T22:22:28.076Z,13.20
2019-04-22T22:24:49.848Z,13.20
2019-04-22T22:27:18.764Z,13.20
2019-04-22T22:32:30.450Z,13.20
2019-04-22T22:35:03.852Z,13.10
2019-04-22T22:37:23.440Z,13.10
2019-04-22T22:39:57.673Z,13.10
2019-04-22T22:42:31.120Z,13.00
2019-04-22T22:45:07.813Z,13.00
2019-04-22T22:48:00.544Z,13.00
2019-04-22T22:50:28.353Z,12.90
2019-04-22T22:55:37.200Z,12.90
2019-04-22T22:58:14.180Z,12.90
2019-04-22T23:00:39.452Z,12.90
2019-04-22T23:03:40.242Z,12.90
2019-04-22T23:06:12.767Z,12.90
2019-04-22T23:08:26.235Z,12.80
2019-04-22T23:11:07.753Z,12.80
2019-04-22T23:13:37.278Z,12.90
2019-04-22T23:16:00.847Z,12.90
2019-04-22T23:18:21.713Z,12.90
2019-04-22T23:20:55.761Z,12.90
2019-04-22T23:23:43.886Z,12.90
2019-04-22T23:26:43.927Z,12.90
2019-04-22T23:29:15.796Z,12.80
2019-04-22T23:31:48.096Z,12.80
2019-04-22T23:34:24.967Z,12.80
2019-04-22T23:37:28.994Z,12.80
2019-04-22T23:40:16.210Z,12.70
2019-04-22T23:42:44.821Z,12.80
2019-04-22T23:45:22.589Z,12.70
2019-04-22T23:47:41.137Z,12.70
2019-04-22T23:50:26.112Z,12.70
2019-04-22T23:52:58.749Z,12.70
2019-04-22T23:55:37.016Z,12.60
2019-04-22T23:58:11.123Z,12.60
